Time;durP1;ratioP1;P1;durP2;ratioP2;P2;SDS_P1;SDS_P2;PMS_P1;PMS_P2;Temp;Humidity;BMP_temperature;BMP_pressure;BME280_temperature;BME280_humidity;BME280_pressure;Samples;Min_cycle;Max_cycle;Signal;HPM_P1;HPM_P2
2022/05/13 00:01:19;;;;;;;0.45;0.35;;;;;;;;;;6128699;23;20006;-73
2022/05/13 00:03:45;;;;;;;1.80;1.00;;;;;;;;;;6127337;23;20002;-73
2022/05/13 00:06:10;;;;;;;0.20;0.20;;;;;;;;;;6127407;23;20021;-73
2022/05/13 00:08:35;;;;;;;0.40;0.30;;;;;;;;;;6128483;23;20081;-73
2022/05/13 00:11:03;;;;;;;0.17;0.17;;;;;;;;;;6128339;23;20327;-72
2022/05/13 00:13:29;;;;;;;1.65;1.10;;;;;;;;;;6128365;23;20013;-73
2022/05/13 00:15:57;;;;;;;0.35;0.35;;;;;;;;;;6128363;23;20013;-73
2022/05/13 00:18:22;;;;;;;0.30;0.20;;;;;;;;;;6128424;23;20002;-73
2022/05/13 00:20:50;;;;;;;0.13;0.13;;;;;;;;;;6127890;23;20017;-73
2022/05/13 00:23:15;;;;;;;1.05;0.43;;;;;;;;;;6128189;23;20016;-73
2022/05/13 00:25:41;;;;;;;0.28;0.10;;;;;;;;;;6128417;23;20026;-74
2022/05/13 00:28:08;;;;;;;0.32;0.30;;;;;;;;;;6128274;23;20028;-73
2022/05/13 00:30:38;;;;;;;0.45;0.40;;;;;;;;;;6126778;23;20064;-73
2022/05/13 00:33:04;;;;;;;0.10;0.10;;;;;;;;;;6128390;23;20508;-73
2022/05/13 00:35:29;;;;;;;0.35;0.35;;;;;;;;;;6127045;23;20037;-74
2022/05/13 00:37:54;;;;;;;0.20;0.20;;;;;;;;;;6127026;23;20001;-73
2022/05/13 00:40:23;;;;;;;0.10;0.10;;;;;;;;;;6127925;23;20013;-73
2022/05/13 00:42:49;;;;;;;0.05;0.05;;;;;;;;;;6128046;23;20010;-73
2022/05/13 00:45:17;;;;;;;0.32;0.25;;;;;;;;;;6127944;23;20008;-74
2022/05/13 00:47:44;;;;;;;0.65;0.65;;;;;;;;;;6127815;23;20492;-73
2022/05/13 00:50:21;;;;;;;0.10;0.10;;;;;;;;;;6151571;23;20397;-73
2022/05/13 00:52:48;;;;;;;0.10;0.10;;;;;;;;;;6126331;23;20094;-74
2022/05/13 00:55:20;;;;;;;0.10;0.10;;;;;;;;;;6150828;23;20006;-74
2022/05/13 00:57:48;;;;;;;0.05;0.05;;;;;;;;;;6126854;23;20006;-73
2022/05/13 01:00:15;;;;;;;0.68;0.40;;;;;;;;;;6151529;23;20016;-73
2022/05/13 01:02:43;;;;;;;0.82;0.30;;;;;;;;;;6126584;23;20005;-74
2022/05/13 01:05:09;;;;;;;7.57;0.45;;;;;;;;;;6129227;23;19998;-74
2022/05/13 01:07:35;;;;;;;0.03;0.03;;;;;;;;;;6128048;23;20036;-73
2022/05/13 01:10:06;;;;;;;0.25;0.25;;;;;;;;;;6126920;23;20405;-72
2022/05/13 01:12:37;;;;;;;0.30;0.25;;;;;;;;;;6150276;23;19997;-74
2022/05/13 01:15:12;;;;;;;1.95;0.57;;;;;;;;;;6151496;23;20090;-73
2022/05/13 01:20:34;;;;;;;0.30;0.30;;;;;;;;;;6127652;23;20020;-73
2022/05/13 01:23:03;;;;;;;0.15;0.15;;;;;;;;;;6151169;23;20549;-74
2022/05/13 01:25:30;;;;;;;0.17;0.17;;;;;;;;;;6127885;23;20081;-73
2022/05/13 01:27:57;;;;;;;0.20;0.20;;;;;;;;;;6126996;23;20073;-73
2022/05/13 01:30:27;;;;;;;0.03;0.03;;;;;;;;;;6126043;23;20006;-73
2022/05/13 01:32:53;;;;;;;0.10;0.10;;;;;;;;;;6126543;23;20040;-72
2022/05/13 01:35:19;;;;;;;0.10;0.10;;;;;;;;;;6127823;23;20200;-73
2022/05/13 01:37:44;;;;;;;0.05;0.05;;;;;;;;;;6127443;23;20001;-74
2022/05/13 01:40:10;;;;;;;0.30;0.30;;;;;;;;;;6126363;23;20075;-74
2022/05/13 01:42:36;;;;;;;1.10;0.68;;;;;;;;;;6127114;23;20012;-73
2022/05/13 01:45:08;;;;;;;0.70;0.57;;;;;;;;;;6126635;23;20002;-73
2022/05/13 01:47:34;;;;;;;2.90;1.15;;;;;;;;;;6150717;23;20465;-74
2022/05/13 01:50:00;;;;;;;0.22;0.20;;;;;;;;;;6127514;23;20029;-73
2022/05/13 01:52:25;;;;;;;1.65;0.73;;;;;;;;;;6127277;23;20006;-73
2022/05/13 01:54:50;;;;;;;0.73;0.73;;;;;;;;;;6127129;23;20002;-73
2022/05/13 01:57:16;;;;;;;0.38;0.38;;;;;;;;;;6126462;23;20056;-72
2022/05/13 01:59:41;;;;;;;0.20;0.20;;;;;;;;;;6127571;23;20449;-72
2022/05/13 02:02:09;;;;;;;0.10;0.10;;;;;;;;;;6126835;23;20406;-72
2022/05/13 02:04:37;;;;;;;1.98;1.35;;;;;;;;;;6127889;23;20005;-72
2022/05/13 02:07:03;;;;;;;3.20;1.17;;;;;;;;;;6127643;23;20012;-71
2022/05/13 02:09:28;;;;;;;0.93;0.70;;;;;;;;;;6127907;23;20025;-71
2022/05/13 02:11:54;;;;;;;0.13;0.13;;;;;;;;;;6127483;23;20002;-72
2022/05/13 02:14:20;;;;;;;0.43;0.43;;;;;;;;;;6126056;23;20096;-71
2022/05/13 02:16:47;;;;;;;0.13;0.13;;;;;;;;;;6150981;23;20050;-72
2022/05/13 02:19:13;;;;;;;0.52;0.45;;;;;;;;;;6127430;23;20314;-72
2022/05/13 02:21:39;;;;;;;0.00;0.00;;;;;;;;;;6126320;23;20010;-72
2022/05/13 02:24:06;;;;;;;0.05;0.05;;;;;;;;;;6127139;23;20006;-71
2022/05/13 02:26:32;;;;;;;0.28;0.20;;;;;;;;;;6126752;23;20002;-71
2022/05/13 02:29:01;;;;;;;0.65;0.65;;;;;;;;;;6127537;23;20065;-72
2022/05/13 02:31:30;;;;;;;0.20;0.20;;;;;;;;;;6126709;23;20016;-72
2022/05/13 02:33:56;;;;;;;0.15;0.13;;;;;;;;;;6126401;23;20077;-72
2022/05/13 02:36:21;;;;;;;0.80;0.40;;;;;;;;;;6125775;23;20040;-72
2022/05/13 02:38:49;;;;;;;0.10;0.10;;;;;;;;;;6127469;23;20035;-71
2022/05/13 02:41:14;;;;;;;0.35;0.35;;;;;;;;;;6127552;23;20032;-72
2022/05/13 02:43:40;;;;;;;0.08;0.08;;;;;;;;;;6127593;23;20386;-72
2022/05/13 02:46:06;;;;;;;1.15;0.50;;;;;;;;;;6127187;23;20008;-72
2022/05/13 02:48:31;;;;;;;0.10;0.10;;;;;;;;;;6126098;23;20006;-72
2022/05/13 02:50:57;;;;;;;0.28;0.28;;;;;;;;;;6127101;23;20002;-72
2022/05/13 02:53:22;;;;;;;0.38;0.38;;;;;;;;;;6126157;23;20104;-72
2022/05/13 02:55:48;;;;;;;1.52;0.50;;;;;;;;;;6126317;23;20382;-72
2022/05/13 02:58:14;;;;;;;0.17;0.17;;;;;;;;;;6127108;23;20056;-72
2022/05/13 03:00:39;;;;;;;0.30;0.30;;;;;;;;;;6150664;23;20010;-72
2022/05/13 03:03:05;;;;;;;0.25;0.25;;;;;;;;;;6125915;23;20422;-72
2022/05/13 03:05:32;;;;;;;0.32;0.32;;;;;;;;;;6127093;23;20009;-72
2022/05/13 03:08:00;;;;;;;0.10;0.08;;;;;;;;;;6128622;23;20006;-73
2022/05/13 03:10:26;;;;;;;0.00;0.00;;;;;;;;;;6129307;23;20006;-72
2022/05/13 03:12:51;;;;;;;1.45;0.65;;;;;;;;;;6129308;23;20453;-72
2022/05/13 03:15:17;;;;;;;0.45;0.45;;;;;;;;;;6129100;23;20002;-71
2022/05/13 03:17:42;;;;;;;0.70;0.63;;;;;;;;;;6128781;23;20001;-73
2022/05/13 03:20:14;;;;;;;1.75;0.57;;;;;;;;;;6128099;23;20013;-72
2022/05/13 03:22:40;;;;;;;2.45;1.10;;;;;;;;;;6129142;23;20025;-71
2022/05/13 03:25:05;;;;;;;0.25;0.25;;;;;;;;;;6127705;23;20411;-72
2022/05/13 03:27:31;;;;;;;0.60;0.45;;;;;;;;;;6129051;23;20019;-72
2022/05/13 03:29:57;;;;;;;0.32;0.32;;;;;;;;;;6128916;23;20033;-75
2022/05/13 03:32:22;;;;;;;0.40;0.30;;;;;;;;;;6152495;23;20009;-72
2022/05/13 03:34:47;;;;;;;0.55;0.55;;;;;;;;;;6128771;23;20009;-72
2022/05/13 03:37:13;;;;;;;0.80;0.73;;;;;;;;;;6127817;23;20002;-73
2022/05/13 03:39:38;;;;;;;0.30;0.28;;;;;;;;;;6129177;23;20021;-72
2022/05/13 03:42:04;;;;;;;1.48;0.70;;;;;;;;;;6129029;23;20080;-71
2022/05/13 03:44:35;;;;;;;0.57;0.40;;;;;;;;;;6128597;23;20006;-72
2022/05/13 03:47:04;;;;;;;0.10;0.10;;;;;;;;;;6128520;23;20087;-72
2022/05/13 03:49:29;;;;;;;0.22;0.20;;;;;;;;;;6127872;23;20017;-72
2022/05/13 03:51:54;;;;;;;0.00;0.00;;;;;;;;;;6128757;23;20726;-72
2022/05/13 03:54:20;;;;;;;0.20;0.20;;;;;;;;;;6126799;23;20002;-72
2022/05/13 03:56:45;;;;;;;0.50;0.43;;;;;;;;;;6128809;23;20028;-71
2022/05/13 03:59:10;;;;;;;0.20;0.20;;;;;;;;;;6128724;23;20008;-72
2022/05/13 04:01:36;;;;;;;1.05;0.28;;;;;;;;;;6127283;23;20021;-72
2022/05/13 04:04:01;;;;;;;0.80;0.80;;;;;;;;;;6127502;23;20016;-71
2022/05/13 04:09:10;;;;;;;0.00;0.00;;;;;;;;;;6128296;23;20018;-71
2022/05/13 04:11:37;;;;;;;2.08;0.57;;;;;;;;;;6127740;23;20010;-72
2022/05/13 04:16:50;;;;;;;0.10;0.10;;;;;;;;;;6127397;23;20016;-72
2022/05/13 04:19:16;;;;;;;0.55;0.40;;;;;;;;;;6127336;23;20033;-72
2022/05/13 04:21:41;;;;;;;0.52;0.47;;;;;;;;;;6102315;23;20006;-73
2022/05/13 04:24:27;;;;;;;0.03;0.03;;;;;;;;;;6128076;23;20044;-72
2022/05/13 04:26:55;;;;;;;0.30;0.20;;;;;;;;;;6128923;23;20010;-72
2022/05/13 04:29:20;;;;;;;0.10;0.10;;;;;;;;;;6128700;23;20044;-72
2022/05/13 04:31:48;;;;;;;0.17;0.17;;;;;;;;;;6132059;23;20061;-71
2022/05/13 04:34:15;;;;;;;1.63;1.08;;;;;;;;;;6153693;23;20010;-72
2022/05/13 04:36:41;;;;;;;0.95;0.63;;;;;;;;;;6151220;23;20006;-72
2022/05/13 04:39:07;;;;;;;0.10;0.10;;;;;;;;;;6151502;23;20006;-72
2022/05/13 04:44:17;;;;;;;1.15;1.05;;;;;;;;;;6128672;23;20013;-72
2022/05/13 04:46:47;;;;;;;0.38;0.38;;;;;;;;;;6125004;23;20469;-72
2022/05/13 04:49:15;;;;;;;2.80;1.40;;;;;;;;;;6128615;23;20050;-72
2022/05/13 04:51:43;;;;;;;3.83;0.47;;;;;;;;;;6128219;23;20008;-72
2022/05/13 04:54:09;;;;;;;0.05;0.05;;;;;;;;;;6128248;23;20088;-71
2022/05/13 04:56:34;;;;;;;0.40;0.40;;;;;;;;;;6128401;23;20002;-71
2022/05/13 04:59:02;;;;;;;5.47;0.32;;;;;;;;;;6127240;23;20013;-72
2022/05/13 05:01:27;;;;;;;0.20;0.20;;;;;;;;;;6125859;23;20033;-71
2022/05/13 05:03:53;;;;;;;0.98;0.52;;;;;;;;;;6127628;23;20013;-72
2022/05/13 05:06:19;;;;;;;0.05;0.00;;;;;;;;;;6128492;23;20275;-72
2022/05/13 05:08:45;;;;;;;0.00;0.00;;;;;;;;;;6127334;23;20306;-71
2022/05/13 05:11:14;;;;;;;0.10;0.10;;;;;;;;;;6150433;23;20006;-71
2022/05/13 05:13:45;;;;;;;0.47;0.30;;;;;;;;;;6127813;23;20010;-71
2022/05/13 05:16:11;;;;;;;1.17;1.17;;;;;;;;;;6128246;23;20088;-74
2022/05/13 05:18:40;;;;;;;0.10;0.10;;;;;;;;;;6128575;23;20041;-74
2022/05/13 05:21:07;;;;;;;0.10;0.10;;;;;;;;;;6127368;23;20010;-72
2022/05/13 05:23:38;;;;;;;2.00;0.40;;;;;;;;;;6127929;23;20016;-75
2022/05/13 05:26:03;;;;;;;0.85;0.85;;;;;;;;;;6128257;23;20033;-74
2022/05/13 05:28:32;;;;;;;0.20;0.20;;;;;;;;;;6127100;23;20006;-74
2022/05/13 05:31:00;;;;;;;0.30;0.30;;;;;;;;;;6127788;23;20002;-75
2022/05/13 05:33:26;;;;;;;0.40;0.40;;;;;;;;;;6126836;23;20038;-75
2022/05/13 05:35:51;;;;;;;0.15;0.15;;;;;;;;;;6127968;23;20006;-75
2022/05/13 05:38:17;;;;;;;12.48;1.63;;;;;;;;;;6127982;23;20002;-72
2022/05/13 05:40:44;;;;;;;0.20;0.20;;;;;;;;;;6128000;23;20009;-72
2022/05/13 05:43:14;;;;;;;2.72;0.55;;;;;;;;;;6123816;23;20080;-72
2022/05/13 05:45:42;;;;;;;0.40;0.40;;;;;;;;;;6128290;23;20002;-73
2022/05/13 05:48:09;;;;;;;0.10;0.10;;;;;;;;;;6151729;23;20013;-72
2022/05/13 05:50:35;;;;;;;0.43;0.43;;;;;;;;;;6126501;23;20020;-73
2022/05/13 05:53:04;;;;;;;1.00;0.65;;;;;;;;;;6127068;23;20006;-74
2022/05/13 05:58:15;;;;;;;0.32;0.32;;;;;;;;;;6127752;23;20052;-73
2022/05/13 06:00:48;;;;;;;0.32;0.32;;;;;;;;;;6127848;23;20406;-73
2022/05/13 06:03:17;;;;;;;0.88;0.45;;;;;;;;;;6127608;23;20302;-73
2022/05/13 06:05:45;;;;;;;0.25;0.25;;;;;;;;;;6127597;23;20002;-74
2022/05/13 06:08:11;;;;;;;0.80;0.70;;;;;;;;;;6151186;23;20005;-72
2022/05/13 06:10:37;;;;;;;1.95;1.27;;;;;;;;;;6124922;23;20010;-74
2022/05/13 06:13:06;;;;;;;0.03;0.03;;;;;;;;;;6127690;23;20077;-73
2022/05/13 06:15:34;;;;;;;0.95;0.90;;;;;;;;;;6127807;23;20064;-72
2022/05/13 06:17:59;;;;;;;0.32;0.20;;;;;;;;;;6127511;23;20409;-73
2022/05/13 06:20:30;;;;;;;0.38;0.22;;;;;;;;;;6127161;23;20006;-73
2022/05/13 06:22:56;;;;;;;0.15;0.15;;;;;;;;;;6127188;23;20076;-73
2022/05/13 06:25:22;;;;;;;5.82;0.90;;;;;;;;;;6125080;23;20033;-72
2022/05/13 06:27:49;;;;;;;0.63;0.63;;;;;;;;;;6123977;23;20089;-72
2022/05/13 06:30:19;;;;;;;1.65;0.65;;;;;;;;;;6126810;23;20413;-73
2022/05/13 06:32:44;;;;;;;0.30;0.30;;;;;;;;;;6125463;23;20006;-73
2022/05/13 06:35:10;;;;;;;12.70;0.47;;;;;;;;;;6127734;23;20013;-73
2022/05/13 06:37:38;;;;;;;0.50;0.50;;;;;;;;;;6127380;23;20465;-73
2022/05/13 06:40:06;;;;;;;0.40;0.40;;;;;;;;;;6126502;23;20009;-72
2022/05/13 06:42:36;;;;;;;4.32;0.98;;;;;;;;;;6127507;23;20002;-73
2022/05/13 06:45:03;;;;;;;0.43;0.43;;;;;;;;;;6126613;23;19998;-72
2022/05/13 06:47:31;;;;;;;0.40;0.25;;;;;;;;;;6127464;23;20148;-73
2022/05/13 06:50:03;;;;;;;0.30;0.30;;;;;;;;;;6126596;23;20093;-73
2022/05/13 06:52:31;;;;;;;0.10;0.10;;;;;;;;;;6127243;23;20005;-74
2022/05/13 06:54:56;;;;;;;1.33;0.55;;;;;;;;;;6127615;23;20681;-74
2022/05/13 06:57:24;;;;;;;0.32;0.32;;;;;;;;;;6127575;23;20057;-73
2022/05/13 06:59:52;;;;;;;33.53;1.48;;;;;;;;;;6125829;23;20476;-74
2022/05/13 07:02:19;;;;;;;0.63;0.63;;;;;;;;;;6127259;23;20420;-74
2022/05/13 07:04:46;;;;;;;4.40;0.40;;;;;;;;;;6127394;23;20009;-73
2022/05/13 07:07:13;;;;;;;0.63;0.52;;;;;;;;;;6125868;23;20035;-73
2022/05/13 07:09:38;;;;;;;0.90;0.90;;;;;;;;;;6127456;23;20006;-73
2022/05/13 07:12:07;;;;;;;0.75;0.75;;;;;;;;;;6127242;23;20176;-73
2022/05/13 07:14:34;;;;;;;6.43;0.95;;;;;;;;;;6125728;23;20316;-72
2022/05/13 07:17:00;;;;;;;0.47;0.47;;;;;;;;;;6126482;23;20048;-74
2022/05/13 07:19:25;;;;;;;1.33;0.57;;;;;;;;;;6102092;23;20006;-73
2022/05/13 07:21:53;;;;;;;1.30;0.88;;;;;;;;;;6127241;23;20002;-73
2022/05/13 07:24:21;;;;;;;0.30;0.30;;;;;;;;;;6127111;23;20064;-73
2022/05/13 07:26:55;;;;;;;0.47;0.38;;;;;;;;;;6127095;23;20006;-74
2022/05/13 07:29:21;;;;;;;0.10;0.10;;;;;;;;;;6127451;23;20025;-73
2022/05/13 07:31:49;;;;;;;2.72;1.40;;;;;;;;;;6125588;23;20065;-74
2022/05/13 07:34:18;;;;;;;1.80;0.88;;;;;;;;;;6101872;23;20064;-74
2022/05/13 07:36:44;;;;;;;0.35;0.35;;;;;;;;;;6125958;23;20010;-73
2022/05/13 07:41:58;;;;;;;1.85;0.82;;;;;;;;;;6126809;23;20020;-74
2022/05/13 07:44:26;;;;;;;0.20;0.20;;;;;;;;;;6127124;23;20030;-74
2022/05/13 07:46:54;;;;;;;0.90;0.80;;;;;;;;;;6126047;23;20417;-74
2022/05/13 07:49:19;;;;;;;1.05;0.30;;;;;;;;;;6126576;23;20010;-73
2022/05/13 07:51:45;;;;;;;0.22;0.22;;;;;;;;;;6127427;23;20378;-74
2022/05/13 07:54:30;;;;;;;1.65;0.82;;;;;;;;;;6126960;23;19999;-74
2022/05/13 07:57:07;;;;;;;2.55;0.30;;;;;;;;;;6097135;23;20098;-75
2022/05/13 08:00:24;;;;;;;1.70;0.73;;;;;;;;;;6122724;23;20057;-76
2022/05/13 08:02:29;;;;;;;0.90;0.70;;;;;;;;;;6128549;23;20017;-76
2022/05/13 08:04:59;;;;;;;0.63;0.60;;;;;;;;;;6129030;23;20001;-75
2022/05/13 08:07:30;;;;;;;16.85;3.22;;;;;;;;;;6129282;23;19998;-76
2022/05/13 08:09:55;;;;;;;2.38;1.27;;;;;;;;;;6127794;23;20001;-76
2022/05/13 08:12:21;;;;;;;0.40;0.15;;;;;;;;;;6128798;23;20028;-75
2022/05/13 08:14:46;;;;;;;1.27;0.63;;;;;;;;;;6103306;23;20291;-75
2022/05/13 08:17:17;;;;;;;0.57;0.57;;;;;;;;;;6128945;23;20037;-74
2022/05/13 08:19:45;;;;;;;0.77;0.77;;;;;;;;;;6127721;23;20029;-75
2022/05/13 08:22:17;;;;;;;1.45;0.90;;;;;;;;;;6129147;23;20018;-76
2022/05/13 08:24:54;;;;;;;;;;;;;;;;;;6129396;23;19998;-74
2022/05/13 08:27:20;;;;;;;0.45;0.40;;;;;;;;;;6128575;23;19912;-78
2022/05/13 08:29:46;;;;;;;0.45;0.30;;;;;;;;;;6126883;23;20052;-77
2022/05/13 08:32:14;;;;;;;5.18;1.58;;;;;;;;;;6128711;23;20068;-77
2022/05/13 08:34:39;;;;;;;0.50;0.50;;;;;;;;;;6128733;23;20006;-75
2022/05/13 08:37:07;;;;;;;0.20;0.20;;;;;;;;;;6127578;23;20012;-76
2022/05/13 08:39:32;;;;;;;0.10;0.10;;;;;;;;;;6128689;23;20012;-76
2022/05/13 08:42:00;;;;;;;2.45;0.22;;;;;;;;;;6128693;23;20076;-77
2022/05/13 08:44:26;;;;;;;2.58;0.75;;;;;;;;;;6127524;23;20010;-76
2022/05/13 08:47:21;;;;;;;0.40;0.40;;;;;;;;;;6128483;23;20089;-76
2022/05/13 08:49:52;;;;;;;0.20;0.20;;;;;;;;;;6125218;23;20101;-77
2022/05/13 08:55:31;;;;;;;0.50;0.45;;;;;;;;;;6127646;23;20313;-76
2022/05/13 08:58:00;;;;;;;0.38;0.32;;;;;;;;;;6128597;23;20416;-77
2022/05/13 09:00:33;;;;;;;0.82;0.55;;;;;;;;;;6127299;23;20426;-75
2022/05/13 09:03:07;;;;;;;0.85;0.85;;;;;;;;;;6127290;23;20006;-75
2022/05/13 09:05:44;;;;;;;2.05;1.60;;;;;;;;;;6126836;23;20005;-76
2022/05/13 09:08:10;;;;;;;1.92;1.13;;;;;;;;;;6127232;23;20637;-76
2022/05/13 09:10:50;;;;;;;9.85;1.23;;;;;;;;;;6127389;23;20002;-76
2022/05/13 09:13:45;;;;;;;1.23;0.43;;;;;;;;;;6128132;23;20016;-76
2022/05/13 09:16:16;;;;;;;1.98;0.90;;;;;;;;;;6067203;23;20112;-75
2022/05/13 09:18:55;;;;;;;2.00;1.17;;;;;;;;;;6044223;23;20006;-75
2022/05/13 09:21:21;;;;;;;4.28;0.85;;;;;;;;;;6043699;23;20437;-77
2022/05/13 09:23:47;;;;;;;5.50;0.45;;;;;;;;;;6043523;23;20006;-75
2022/05/13 09:26:15;;;;;;;1.73;0.43;;;;;;;;;;6067787;23;20342;-75
2022/05/13 09:29:00;;;;;;;0.35;0.35;;;;;;;;;;6067339;23;20010;-75
2022/05/13 09:31:29;;;;;;;1.80;0.57;;;;;;;;;;6067682;23;20006;-75
2022/05/13 09:33:54;;;;;;;0.13;0.13;;;;;;;;;;6043304;23;20003;-74
2022/05/13 09:36:21;;;;;;;0.32;0.32;;;;;;;;;;6043328;23;20078;-75
2022/05/13 09:38:52;;;;;;;0.30;0.13;;;;;;;;;;6042586;23;20011;-76
2022/05/13 09:41:24;;;;;;;0.20;0.20;;;;;;;;;;6043063;23;20330;-75
2022/05/13 09:44:24;;;;;;;0.28;0.10;;;;;;;;;;6067380;23;20014;-76
2022/05/13 09:46:52;;;;;;;0.30;0.30;;;;;;;;;;6067761;23;20010;-75
2022/05/13 09:49:29;;;;;;;0.13;0.13;;;;;;;;;;6043974;23;20011;-74
2022/05/13 09:52:25;;;;;;;1.27;0.68;;;;;;;;;;6067341;23;20338;-77
2022/05/13 09:55:22;;;;;;;0.47;0.47;;;;;;;;;;6102133;23;20345;-77
2022/05/13 09:58:01;;;;;;;0.40;0.40;;;;;;;;;;6125902;23;20014;-76
2022/05/13 10:00:35;;;;;;;0.20;0.20;;;;;;;;;;6126630;23;20002;-76
2022/05/13 10:03:09;;;;;;;0.50;0.43;;;;;;;;;;6128394;23;20002;-76
2022/05/13 10:05:37;;;;;;;0.10;0.10;;;;;;;;;;6127369;23;20009;-76
2022/05/13 10:08:08;;;;;;;0.32;0.32;;;;;;;;;;6128050;23;20006;-76
2022/05/13 10:16:24;;;;;;;1.20;0.52;;;;;;;;;;6127383;23;20067;-85
2022/05/13 10:18:57;;;;;;;3.58;1.38;;;;;;;;;;6151359;23;20417;-86
2022/05/13 10:21:28;;;;;;;0.63;0.60;;;;;;;;;;6127314;23;20095;-85
2022/05/13 10:24:18;;;;;;;0.57;0.55;;;;;;;;;;6126622;23;20088;-83
2022/05/13 10:26:45;;;;;;;0.10;0.10;;;;;;;;;;6126792;23;20001;-81
2022/05/13 10:29:18;;;;;;;0.85;0.57;;;;;;;;;;6126179;23;20044;-82
2022/05/13 10:31:46;;;;;;;0.75;0.30;;;;;;;;;;6154261;23;20058;-80
2022/05/13 10:34:21;;;;;;;2.60;1.45;;;;;;;;;;6152794;23;20077;-80
2022/05/13 10:37:34;;;;;;;0.10;0.10;;;;;;;;;;6126710;23;20006;-82
2022/05/13 10:40:02;;;;;;;1.30;0.57;;;;;;;;;;6081936;23;20017;-81
2022/05/13 10:42:35;;;;;;;0.57;0.47;;;;;;;;;;6127688;23;20099;-80
2022/05/13 10:45:15;;;;;;;0.20;0.20;;;;;;;;;;6126656;23;20002;-83
2022/05/13 10:47:58;;;;;;;4.18;1.90;;;;;;;;;;6151002;23;20088;-82
2022/05/13 10:50:26;;;;;;;0.70;0.70;;;;;;;;;;6126625;23;20006;-83
2022/05/13 10:52:57;;;;;;;0.50;0.43;;;;;;;;;;6150456;23;20014;-83
2022/05/13 10:55:51;;;;;;;0.52;0.52;;;;;;;;;;6127658;23;20002;-85
2022/05/13 10:58:41;;;;;;;0.30;0.30;;;;;;;;;;6127685;23;20017;-80
2022/05/13 11:01:15;;;;;;;9.57;0.95;;;;;;;;;;6127266;23;20362;-84
2022/05/13 11:03:58;;;;;;;5.72;0.35;;;;;;;;;;6127510;23;20461;-83
2022/05/13 11:06:29;;;;;;;1.38;0.20;;;;;;;;;;6127785;23;20077;-85
2022/05/13 11:09:05;;;;;;;0.63;0.63;;;;;;;;;;6127949;23;20005;-85
2022/05/13 11:11:33;;;;;;;0.30;0.20;;;;;;;;;;6126690;23;20089;-84
2022/05/13 11:14:20;;;;;;;0.52;0.40;;;;;;;;;;6126767;23;20010;-81
2022/05/13 11:17:07;;;;;;;1.00;0.52;;;;;;;;;;6127446;23;20006;-84
2022/05/13 11:20:03;;;;;;;0.20;0.20;;;;;;;;;;6129707;23;20072;-83
2022/05/13 11:22:37;;;;;;;4.85;1.40;;;;;;;;;;6127541;23;20010;-84
2022/05/13 11:28:22;;;;;;;0.52;0.38;;;;;;;;;;6127837;23;20464;-83
2022/05/13 11:31:25;;;;;;;0.20;0.20;;;;;;;;;;6128427;23;20030;-84
2022/05/13 11:34:05;;;;;;;1.00;0.93;;;;;;;;;;6128247;23;20021;-83
2022/05/13 11:36:54;;;;;;;2.15;1.35;;;;;;;;;;6129044;23;20424;-83
2022/05/13 11:39:26;;;;;;;0.40;0.40;;;;;;;;;;6128347;23;20032;-84
2022/05/13 11:42:14;;;;;;;1.60;0.63;;;;;;;;;;6128739;23;20016;-84
2022/05/13 11:44:46;;;;;;;1.48;0.30;;;;;;;;;;6101114;23;20033;-84
2022/05/13 11:47:43;;;;;;;0.73;0.55;;;;;;;;;;6129398;23;20014;-82
2022/05/13 11:50:11;;;;;;;3.30;1.77;;;;;;;;;;6127426;23;20006;-85
2022/05/13 11:52:40;;;;;;;1.95;0.45;;;;;;;;;;6151542;23;20370;-86
2022/05/13 11:55:18;;;;;;;3.40;1.00;;;;;;;;;;6129009;23;20006;-88
2022/05/13 11:57:49;;;;;;;0.20;0.20;;;;;;;;;;6127411;23;20330;-86
2022/05/13 12:00:38;;;;;;;0.60;0.50;;;;;;;;;;6152686;23;20006;-87
2022/05/13 12:03:03;;;;;;;0.90;0.90;;;;;;;;;;6129343;23;20013;-87
2022/05/13 12:05:34;;;;;;;4.47;0.60;;;;;;;;;;6128432;23;20002;-88
2022/05/13 12:08:31;;;;;;;0.20;0.20;;;;;;;;;;6128035;23;20233;-87
2022/05/13 12:11:02;;;;;;;2.55;1.20;;;;;;;;;;6108110;23;20005;-84
2022/05/13 12:13:30;;;;;;;0.40;0.40;;;;;;;;;;6128670;23;20017;-80
2022/05/13 12:16:10;;;;;;;6.82;1.85;;;;;;;;;;6128813;23;20090;-81
2022/05/13 12:18:47;;;;;;;7.22;1.20;;;;;;;;;;6103483;23;20040;-83
2022/05/13 12:21:39;;;;;;;2.08;1.08;;;;;;;;;;6128907;23;20393;-82
2022/05/13 12:24:10;;;;;;;0.50;0.38;;;;;;;;;;6128999;23;20014;-80
2022/05/13 12:27:01;;;;;;;0.63;0.47;;;;;;;;;;6128316;23;20009;-81
2022/05/13 12:29:45;;;;;;;0.45;0.45;;;;;;;;;;6128774;23;20412;-80
2022/05/13 12:32:25;;;;;;;0.55;0.55;;;;;;;;;;6128855;23;20117;-81
2022/05/13 12:37:45;;;;;;;0.70;0.70;;;;;;;;;;6082825;23;20088;-79
2022/05/13 12:40:23;;;;;;;0.70;0.70;;;;;;;;;;6128767;23;20413;-79
2022/05/13 12:42:52;;;;;;;0.43;0.43;;;;;;;;;;6128604;23;20002;-78
2022/05/13 12:45:20;;;;;;;0.80;0.80;;;;;;;;;;6127211;23;20080;-80
2022/05/13 12:47:57;;;;;;;0.50;0.50;;;;;;;;;;6128309;23;20413;-79
2022/05/13 12:50:41;;;;;;;0.63;0.63;;;;;;;;;;6127569;23;20068;-79
2022/05/13 12:53:28;;;;;;;1.60;1.15;;;;;;;;;;6127235;23;20030;-82
2022/05/13 12:56:11;;;;;;;0.52;0.52;;;;;;;;;;6128561;23;20013;-80
2022/05/13 12:58:36;;;;;;;;;;;;;;;;;;6128689;23;20017;-83
2022/05/13 13:01:01;;;;;;;0.45;0.45;;;;;;;;;;6151725;23;19909;-83
2022/05/13 13:03:30;;;;;;;0.82;0.80;;;;;;;;;;6127470;23;20425;-81
2022/05/13 13:06:11;;;;;;;3.33;0.75;;;;;;;;;;6127449;23;19998;-82
2022/05/13 13:08:39;;;;;;;0.22;0.22;;;;;;;;;;6151444;23;20076;-81
2022/05/13 13:11:37;;;;;;;0.40;0.40;;;;;;;;;;6128624;23;20064;-83
2022/05/13 13:14:28;;;;;;;0.70;0.70;;;;;;;;;;6127195;23;20093;-79
2022/05/13 13:17:07;;;;;;;0.82;0.77;;;;;;;;;;6118007;23;20067;-80
2022/05/13 13:19:32;;;;;;;0.40;0.40;;;;;;;;;;6151283;23;20036;-82
2022/05/13 13:22:10;;;;;;;0.90;0.73;;;;;;;;;;6128294;23;20001;-78
2022/05/13 13:24:37;;;;;;;0.98;0.75;;;;;;;;;;6128474;23;20422;-77
2022/05/13 13:27:05;;;;;;;1.92;1.25;;;;;;;;;;6126670;23;20387;-79
2022/05/13 13:29:33;;;;;;;1.13;0.55;;;;;;;;;;6151822;23;20006;-79
2022/05/13 13:32:13;;;;;;;1.42;1.33;;;;;;;;;;6127170;23;20441;-78
2022/05/13 13:35:01;;;;;;;0.98;0.60;;;;;;;;;;6126585;23;20473;-79
2022/05/13 13:37:31;;;;;;;0.80;0.57;;;;;;;;;;6115684;23;20314;-80
2022/05/13 13:40:12;;;;;;;0.52;0.52;;;;;;;;;;6151585;23;20382;-78
2022/05/13 13:42:38;;;;;;;0.20;0.20;;;;;;;;;;6128324;23;20006;-78
2022/05/13 13:45:24;;;;;;;1.60;0.85;;;;;;;;;;6128111;23;20065;-79
2022/05/13 13:47:54;;;;;;;0.80;0.80;;;;;;;;;;6126981;23;20009;-78
2022/05/13 13:50:26;;;;;;;0.63;0.32;;;;;;;;;;6125933;23;20029;-78
2022/05/13 13:52:56;;;;;;;0.57;0.57;;;;;;;;;;6127773;23;20091;-79
2022/05/13 13:55:34;;;;;;;1.15;0.68;;;;;;;;;;6127864;23;20002;-80
2022/05/13 13:58:20;;;;;;;0.50;0.50;;;;;;;;;;6126019;23;20026;-79
2022/05/13 14:00:47;;;;;;;0.75;0.70;;;;;;;;;;6127972;23;20371;-82
2022/05/13 14:03:16;;;;;;;1.02;0.65;;;;;;;;;;6151424;23;20009;-76
2022/05/13 14:05:44;;;;;;;0.52;0.52;;;;;;;;;;6127531;23;20077;-77
2022/05/13 14:08:12;;;;;;;0.85;0.82;;;;;;;;;;6150191;23;20006;-76
2022/05/13 14:10:55;;;;;;;0.55;0.55;;;;;;;;;;6151061;23;20061;-77
2022/05/13 14:13:29;;;;;;;0.65;0.65;;;;;;;;;;6126513;23;20009;-76
2022/05/13 14:16:22;;;;;;;2.85;1.17;;;;;;;;;;6127462;23;20287;-76
2022/05/13 14:18:54;;;;;;;0.50;0.50;;;;;;;;;;6127240;23;20006;-76
2022/05/13 14:21:27;;;;;;;1.95;1.17;;;;;;;;;;6125961;23;20093;-75
2022/05/13 14:24:10;;;;;;;0.10;0.10;;;;;;;;;;6126579;23;20282;-76
2022/05/13 14:26:57;;;;;;;5.10;1.42;;;;;;;;;;6127080;23;20012;-75
2022/05/13 14:29:24;;;;;;;0.30;0.30;;;;;;;;;;6127334;23;20025;-76
2022/05/13 14:31:57;;;;;;;0.35;0.35;;;;;;;;;;6126056;23;20028;-76
2022/05/13 14:34:23;;;;;;;6.43;0.93;;;;;;;;;;6150631;23;20081;-75
2022/05/13 14:36:56;;;;;;;1.30;0.63;;;;;;;;;;6150380;23;20041;-76
2022/05/13 14:42:17;;;;;;;1.13;1.03;;;;;;;;;;6126334;23;20088;-75
2022/05/13 14:44:50;;;;;;;1.58;0.63;;;;;;;;;;6127297;23;20221;-74
2022/05/13 14:47:28;;;;;;;0.40;0.40;;;;;;;;;;6125959;23;20072;-75
2022/05/13 14:49:54;;;;;;;0.75;0.50;;;;;;;;;;6125645;23;20068;-76
2022/05/13 14:52:37;;;;;;;0.40;0.40;;;;;;;;;;6127049;23;20072;-75
2022/05/13 14:55:14;;;;;;;1.30;0.95;;;;;;;;;;6125893;23;20410;-75
2022/05/13 14:57:44;;;;;;;0.60;0.40;;;;;;;;;;6150530;23;20037;-76
2022/05/13 15:00:20;;;;;;;0.57;0.55;;;;;;;;;;6125614;23;20118;-80
2022/05/13 15:03:02;;;;;;;0.52;0.52;;;;;;;;;;6126480;23;20002;-80
2022/05/13 15:05:48;;;;;;;0.82;0.60;;;;;;;;;;6128525;23;20410;-81
2022/05/13 15:08:39;;;;;;;7.63;0.40;;;;;;;;;;6150034;23;20013;-84
2022/05/13 15:11:07;;;;;;;0.40;0.40;;;;;;;;;;6127367;23;20005;-80
2022/05/13 15:13:32;;;;;;;0.88;0.82;;;;;;;;;;6127404;23;20106;-79
2022/05/13 15:15:57;;;;;;;0.38;0.38;;;;;;;;;;6126987;23;20015;-77
2022/05/13 15:18:32;;;;;;;0.22;0.20;;;;;;;;;;6126036;23;20353;-79
2022/05/13 15:21:01;;;;;;;0.10;0.10;;;;;;;;;;6127570;23;20330;-79
2022/05/13 15:23:26;;;;;;;2.28;1.17;;;;;;;;;;6129480;23;20013;-80
2022/05/13 15:25:54;;;;;;;1.33;1.17;;;;;;;;;;6129641;23;19998;-78
2022/05/13 15:28:21;;;;;;;0.35;0.35;;;;;;;;;;6129499;23;20017;-78
2022/05/13 15:30:48;;;;;;;1.55;0.57;;;;;;;;;;6129476;23;20466;-79
2022/05/13 15:33:20;;;;;;;0.38;0.30;;;;;;;;;;6129249;23;20597;-79
2022/05/13 15:35:48;;;;;;;;;;;;;;;;;;6129747;23;20006;-79
2022/05/13 15:38:13;;;;;;;1.58;0.30;;;;;;;;;;6129262;23;20007;-79
2022/05/13 15:40:38;;;;;;;0.95;0.68;;;;;;;;;;6129241;23;20339;-79